Terminal Aerodrome Forecast
Issued by NWS

Home | Current Version | Previous Version | Text Only | Print | Product List | Glossary On
Versions: 1 2 3 4 5 6 7 8 9 10 11 12 13 14 15 16
000
FTUS41 KBTV 230000 AAA
TAFRUT
TAF AMD
KRUT 230002Z 2300/2324 VRB03KT P6SM VCSH SCT002 OVC030
      TEMPO 2300/2304 1SM -RA BR OVC002
     FM230700 VRB03KT 3SM BR OVC015
     FM231300 VRB03KT P6SM BKN030
      AMD LTD TO CLD VIS AND WIND=

USA.gov is the U.S. government's official web portal to all federal, state and local government web resources and services.